sensor_id;sensor_type;location;lat;lon;timestamp;P1;durP1;ratioP1;P2;durP2;ratioP2
36833;SDS011;48003;52.084;5.224;2022-07-21T00:00:53;11.7;;;10.5;;
36833;SDS011;48003;52.084;5.224;2022-07-21T00:02:40;11.5;;;10.3;;
36833;SDS011;48003;52.084;5.224;2022-07-21T00:04:26;11.9;;;9.9;;
36833;SDS011;48003;52.084;5.224;2022-07-21T00:06:12;12.4;;;11.1;;
36833;SDS011;48003;52.084;5.224;2022-07-21T00:07:58;11.7;;;10.5;;
36833;SDS011;48003;52.084;5.224;2022-07-21T00:11:30;12.5;;;10.8;;
36833;SDS011;48003;52.084;5.224;2022-07-21T00:13:16;14.3;;;11.4;;
36833;SDS011;48003;52.084;5.224;2022-07-21T00:15:04;12.2;;;11.0;;
36833;SDS011;48003;52.084;5.224;2022-07-21T00:16:52;12.4;;;11.1;;
36833;SDS011;48003;52.084;5.224;2022-07-21T00:18:38;12.5;;;11.2;;
36833;SDS011;48003;52.084;5.224;2022-07-21T00:22:11;12.3;;;11.1;;
36833;SDS011;48003;52.084;5.224;2022-07-21T00:23:57;11.4;;;10.3;;
36833;SDS011;48003;52.084;5.224;2022-07-21T00:25:45;12.5;;;11.3;;
36833;SDS011;48003;52.084;5.224;2022-07-21T00:27:31;11.8;;;10.6;;
36833;SDS011;48003;52.084;5.224;2022-07-21T00:29:18;11.6;;;10.4;;
36833;SDS011;48003;52.084;5.224;2022-07-21T00:31:05;10.4;;;9.4;;
36833;SDS011;48003;52.084;5.224;2022-07-21T00:34:38;10.4;;;9.31;;
36833;SDS011;48003;52.084;5.224;2022-07-21T00:36:25;9.9;;;8.9;;
36833;SDS011;48003;52.084;5.224;2022-07-21T00:38:11;10.6;;;9.0;;
36833;SDS011;48003;52.084;5.224;2022-07-21T00:39:57;9.6;;;8.6;;
36833;SDS011;48003;52.084;5.224;2022-07-21T00:41:44;8.9;;;8.0;;
36833;SDS011;48003;52.084;5.224;2022-07-21T00:43:30;8.71;;;7.9;;
36833;SDS011;48003;52.084;5.224;2022-07-21T00:47:04;8.4;;;7.5;;
36833;SDS011;48003;52.084;5.224;2022-07-21T00:48:50;8.6;;;7.4;;
36833;SDS011;48003;52.084;5.224;2022-07-21T00:50:36;8.4;;;7.6;;
36833;SDS011;48003;52.084;5.224;2022-07-21T00:52:23;8.1;;;7.3;;
36833;SDS011;48003;52.084;5.224;2022-07-21T00:54:10;8.5;;;7.6;;
36833;SDS011;48003;52.084;5.224;2022-07-21T00:57:46;8.6;;;7.7;;
36833;SDS011;48003;52.084;5.224;2022-07-21T00:59:35;9.1;;;8.2;;
36833;SDS011;48003;52.084;5.224;2022-07-21T01:01:22;9.31;;;8.0;;
36833;SDS011;48003;52.084;5.224;2022-07-21T01:03:09;9.4;;;8.2;;
36833;SDS011;48003;52.084;5.224;2022-07-21T01:04:56;8.71;;;7.8;;
36833;SDS011;48003;52.084;5.224;2022-07-21T01:06:42;9.21;;;8.1;;
36833;SDS011;48003;52.084;5.224;2022-07-21T01:10:18;8.81;;;7.8;;
36833;SDS011;48003;52.084;5.224;2022-07-21T01:12:07;8.9;;;8.0;;
36833;SDS011;48003;52.084;5.224;2022-07-21T01:13:55;8.2;;;7.4;;
36833;SDS011;48003;52.084;5.224;2022-07-21T01:15:42;10.0;;;7.9;;
36833;SDS011;48003;52.084;5.224;2022-07-21T01:17:28;9.81;;;8.2;;
36833;SDS011;48003;52.084;5.224;2022-07-21T01:19:14;11.2;;;8.2;;
36833;SDS011;48003;52.084;5.224;2022-07-21T01:22:53;9.31;;;8.31;;
36833;SDS011;48003;52.084;5.224;2022-07-21T01:24:41;9.6;;;8.6;;
36833;SDS011;48003;52.084;5.224;2022-07-21T01:26:27;10.21;;;9.0;;
36833;SDS011;48003;52.084;5.224;2022-07-21T01:28:15;10.21;;;8.31;;
36833;SDS011;48003;52.084;5.224;2022-07-21T01:30:03;9.9;;;8.9;;
36833;SDS011;48003;52.084;5.224;2022-07-21T01:31:51;9.6;;;8.71;;
36833;SDS011;48003;52.084;5.224;2022-07-21T01:35:27;10.3;;;9.21;;
36833;SDS011;48003;52.084;5.224;2022-07-21T01:37:14;10.4;;;8.9;;
36833;SDS011;48003;52.084;5.224;2022-07-21T01:42:04;10.7;;;9.6;;
36833;SDS011;48003;52.084;5.224;2022-07-21T01:45:36;11.4;;;10.3;;
36833;SDS011;48003;52.084;5.224;2022-07-21T01:47:24;11.3;;;10.21;;
36833;SDS011;48003;52.084;5.224;2022-07-21T01:49:11;11.0;;;9.9;;
36833;SDS011;48003;52.084;5.224;2022-07-21T01:50:59;12.3;;;11.0;;
36833;SDS011;48003;52.084;5.224;2022-07-21T01:52:45;13.1;;;11.1;;
36833;SDS011;48003;52.084;5.224;2022-07-21T01:56:18;12.9;;;11.2;;
36833;SDS011;48003;52.084;5.224;2022-07-21T01:58:06;12.2;;;11.0;;
36833;SDS011;48003;52.084;5.224;2022-07-21T01:59:52;12.6;;;11.2;;
36833;SDS011;48003;52.084;5.224;2022-07-21T02:01:39;12.5;;;11.3;;
36833;SDS011;48003;52.084;5.224;2022-07-21T02:03:25;13.3;;;11.4;;
36833;SDS011;48003;52.084;5.224;2022-07-21T02:05:12;12.6;;;10.9;;
36833;SDS011;48003;52.084;5.224;2022-07-21T02:10:35;13.4;;;12.1;;
36833;SDS011;48003;52.084;5.224;2022-07-21T02:12:22;14.3;;;12.9;;
36833;SDS011;48003;52.084;5.224;2022-07-21T02:14:08;15.3;;;13.7;;
36833;SDS011;48003;52.084;5.224;2022-07-21T02:15:54;14.6;;;13.2;;
36833;SDS011;48003;52.084;5.224;2022-07-21T02:17:40;15.6;;;13.2;;
36833;SDS011;48003;52.084;5.224;2022-07-21T02:21:14;15.7;;;14.1;;
36833;SDS011;48003;52.084;5.224;2022-07-21T02:23:01;15.7;;;14.1;;
36833;SDS011;48003;52.084;5.224;2022-07-21T02:24:47;15.9;;;14.3;;
36833;SDS011;48003;52.084;5.224;2022-07-21T02:26:33;16.5;;;14.8;;
36833;SDS011;48003;52.084;5.224;2022-07-21T02:28:20;16.2;;;14.6;;
36833;SDS011;48003;52.084;5.224;2022-07-21T02:31:54;16.5;;;14.7;;
36833;SDS011;48003;52.084;5.224;2022-07-21T02:33:42;17.61;;;15.8;;
36833;SDS011;48003;52.084;5.224;2022-07-21T02:35:28;17.5;;;15.6;;
36833;SDS011;48003;52.084;5.224;2022-07-21T02:37:14;15.7;;;14.1;;
36833;SDS011;48003;52.084;5.224;2022-07-21T02:39:00;16.61;;;14.8;;
36833;SDS011;48003;52.084;5.224;2022-07-21T02:40:47;17.11;;;15.3;;
36833;SDS011;48003;52.084;5.224;2022-07-21T02:44:22;17.61;;;15.7;;
36833;SDS011;48003;52.084;5.224;2022-07-21T02:46:08;17.61;;;15.8;;
36833;SDS011;48003;52.084;5.224;2022-07-21T02:47:55;16.9;;;15.1;;
36833;SDS011;48003;52.084;5.224;2022-07-21T02:49:47;17.3;;;15.5;;
36833;SDS011;48003;52.084;5.224;2022-07-21T02:51:33;16.5;;;14.8;;
36833;SDS011;48003;52.084;5.224;2022-07-21T02:53:20;15.9;;;14.2;;
36833;SDS011;48003;52.084;5.224;2022-07-21T02:56:55;16.4;;;14.7;;
36833;SDS011;48003;52.084;5.224;2022-07-21T02:58:41;16.2;;;14.5;;
36833;SDS011;48003;52.084;5.224;2022-07-21T03:00:27;16.5;;;14.8;;
36833;SDS011;48003;52.084;5.224;2022-07-21T03:02:13;16.5;;;14.8;;
36833;SDS011;48003;52.084;5.224;2022-07-21T03:04:00;15.7;;;14.0;;
36833;SDS011;48003;52.084;5.224;2022-07-21T03:05:47;18.41;;;15.6;;
36833;SDS011;48003;52.084;5.224;2022-07-21T03:09:20;17.2;;;15.3;;
36833;SDS011;48003;52.084;5.224;2022-07-21T03:11:07;16.9;;;15.1;;
36833;SDS011;48003;52.084;5.224;2022-07-21T03:12:53;16.5;;;14.6;;
36833;SDS011;48003;52.084;5.224;2022-07-21T03:14:41;17.91;;;15.4;;
36833;SDS011;48003;52.084;5.224;2022-07-21T03:16:28;18.3;;;16.4;;
36833;SDS011;48003;52.084;5.224;2022-07-21T03:20:02;17.11;;;15.4;;
36833;SDS011;48003;52.084;5.224;2022-07-21T03:21:49;18.3;;;16.4;;
36833;SDS011;48003;52.084;5.224;2022-07-21T03:23:35;18.11;;;16.3;;
36833;SDS011;48003;52.084;5.224;2022-07-21T03:25:21;17.2;;;15.5;;
36833;SDS011;48003;52.084;5.224;2022-07-21T03:27:09;18.91;;;16.8;;
36833;SDS011;48003;52.084;5.224;2022-07-21T03:28:56;19.61;;;16.4;;
36833;SDS011;48003;52.084;5.224;2022-07-21T03:32:29;18.7;;;16.8;;
36833;SDS011;48003;52.084;5.224;2022-07-21T03:34:16;18.2;;;16.11;;
36833;SDS011;48003;52.084;5.224;2022-07-21T03:36:03;19.7;;;17.0;;
36833;SDS011;48003;52.084;5.224;2022-07-21T03:37:50;19.8;;;17.8;;
36833;SDS011;48003;52.084;5.224;2022-07-21T03:39:40;19.8;;;17.8;;
36833;SDS011;48003;52.084;5.224;2022-07-21T03:41:26;20.9;;;18.7;;
36833;SDS011;48003;52.084;5.224;2022-07-21T03:44:59;20.0;;;18.0;;
36833;SDS011;48003;52.084;5.224;2022-07-21T03:46:45;21.6;;;19.41;;
36833;SDS011;48003;52.084;5.224;2022-07-21T03:48:32;21.4;;;19.2;;
36833;SDS011;48003;52.084;5.224;2022-07-21T03:50:18;21.3;;;19.2;;
36833;SDS011;48003;52.084;5.224;2022-07-21T03:52:05;23.1;;;20.6;;
36833;SDS011;48003;52.084;5.224;2022-07-21T03:55:37;22.6;;;20.2;;
36833;SDS011;48003;52.084;5.224;2022-07-21T03:57:23;23.3;;;20.8;;
36833;SDS011;48003;52.084;5.224;2022-07-21T03:59:10;25.5;;;22.7;;
36833;SDS011;48003;52.084;5.224;2022-07-21T04:00:57;23.2;;;20.7;;
36833;SDS011;48003;52.084;5.224;2022-07-21T04:02:43;23.9;;;21.5;;
36833;SDS011;48003;52.084;5.224;2022-07-21T04:04:30;25.1;;;22.6;;
36833;SDS011;48003;52.084;5.224;2022-07-21T04:08:04;25.3;;;22.7;;
36833;SDS011;48003;52.084;5.224;2022-07-21T04:09:50;27.1;;;23.3;;
36833;SDS011;48003;52.084;5.224;2022-07-21T04:11:37;26.2;;;23.5;;
36833;SDS011;48003;52.084;5.224;2022-07-21T04:13:23;26.9;;;24.1;;
36833;SDS011;48003;52.084;5.224;2022-07-21T04:15:10;27.3;;;24.3;;
36833;SDS011;48003;52.084;5.224;2022-07-21T04:16:57;27.1;;;24.3;;
36833;SDS011;48003;52.084;5.224;2022-07-21T04:20:30;28.0;;;25.1;;
36833;SDS011;48003;52.084;5.224;2022-07-21T04:22:17;28.0;;;25.0;;
36833;SDS011;48003;52.084;5.224;2022-07-21T04:24:04;29.4;;;23.8;;
36833;SDS011;48003;52.084;5.224;2022-07-21T04:25:51;27.4;;;24.5;;
36833;SDS011;48003;52.084;5.224;2022-07-21T04:27:38;26.9;;;24.0;;
36833;SDS011;48003;52.084;5.224;2022-07-21T04:29:25;28.6;;;25.5;;
36833;SDS011;48003;52.084;5.224;2022-07-21T04:32:59;28.0;;;25.1;;
36833;SDS011;48003;52.084;5.224;2022-07-21T04:34:46;27.6;;;24.6;;
36833;SDS011;48003;52.084;5.224;2022-07-21T04:36:33;28.1;;;25.3;;
36833;SDS011;48003;52.084;5.224;2022-07-21T04:38:19;27.5;;;24.7;;
36833;SDS011;48003;52.084;5.224;2022-07-21T04:40:06;26.5;;;23.8;;
36833;SDS011;48003;52.084;5.224;2022-07-21T04:43:42;29.7;;;26.5;;
36833;SDS011;48003;52.084;5.224;2022-07-21T04:45:28;30.0;;;26.9;;
36833;SDS011;48003;52.084;5.224;2022-07-21T04:47:15;30.0;;;26.8;;
36833;SDS011;48003;52.084;5.224;2022-07-21T04:49:02;29.2;;;26.0;;
36833;SDS011;48003;52.084;5.224;2022-07-21T04:50:48;28.9;;;25.8;;
36833;SDS011;48003;52.084;5.224;2022-07-21T04:52:34;30.9;;;27.3;;
36833;SDS011;48003;52.084;5.224;2022-07-21T04:56:08;31.6;;;28.3;;
36833;SDS011;48003;52.084;5.224;2022-07-21T04:57:54;28.8;;;25.8;;
36833;SDS011;48003;52.084;5.224;2022-07-21T04:59:41;29.2;;;25.5;;
36833;SDS011;48003;52.084;5.224;2022-07-21T05:01:27;31.0;;;27.6;;
36833;SDS011;48003;52.084;5.224;2022-07-21T05:03:14;31.1;;;27.8;;
36833;SDS011;48003;52.084;5.224;2022-07-21T05:05:03;31.8;;;28.4;;
36833;SDS011;48003;52.084;5.224;2022-07-21T05:08:38;32.8;;;29.4;;
36833;SDS011;48003;52.084;5.224;2022-07-21T05:10:24;31.2;;;28.0;;
36833;SDS011;48003;52.084;5.224;2022-07-21T05:12:11;35.31;;;29.0;;
36833;SDS011;48003;52.084;5.224;2022-07-21T05:13:57;32.8;;;29.2;;
36833;SDS011;48003;52.084;5.224;2022-07-21T05:15:44;32.0;;;28.6;;
36833;SDS011;48003;52.084;5.224;2022-07-21T05:19:18;32.71;;;29.2;;
36833;SDS011;48003;52.084;5.224;2022-07-21T05:21:04;36.6;;;30.8;;
36833;SDS011;48003;52.084;5.224;2022-07-21T05:22:50;35.6;;;31.4;;
36833;SDS011;48003;52.084;5.224;2022-07-21T05:24:36;35.1;;;31.3;;
36833;SDS011;48003;52.084;5.224;2022-07-21T05:26:22;36.31;;;31.8;;
36833;SDS011;48003;52.084;5.224;2022-07-21T05:28:10;38.0;;;32.21;;
36833;SDS011;48003;52.084;5.224;2022-07-21T05:31:44;36.0;;;31.4;;
36833;SDS011;48003;52.084;5.224;2022-07-21T05:33:31;38.71;;;32.4;;
36833;SDS011;48003;52.084;5.224;2022-07-21T05:35:17;34.21;;;30.4;;
36833;SDS011;48003;52.084;5.224;2022-07-21T05:37:03;35.6;;;30.3;;
36833;SDS011;48003;52.084;5.224;2022-07-21T05:38:49;34.5;;;30.1;;
36833;SDS011;48003;52.084;5.224;2022-07-21T05:40:36;33.6;;;30.0;;
36833;SDS011;48003;52.084;5.224;2022-07-21T05:44:09;33.5;;;29.7;;
36833;SDS011;48003;52.084;5.224;2022-07-21T05:45:55;34.1;;;28.9;;
36833;SDS011;48003;52.084;5.224;2022-07-21T05:47:41;35.9;;;29.3;;
36833;SDS011;48003;52.084;5.224;2022-07-21T05:49:28;34.71;;;28.3;;
36833;SDS011;48003;52.084;5.224;2022-07-21T05:51:15;32.21;;;28.0;;
36833;SDS011;48003;52.084;5.224;2022-07-21T05:54:48;32.21;;;27.4;;
36833;SDS011;48003;52.084;5.224;2022-07-21T05:58:24;29.3;;;25.9;;
36833;SDS011;48003;52.084;5.224;2022-07-21T06:00:11;34.1;;;26.4;;
36833;SDS011;48003;52.084;5.224;2022-07-21T06:01:58;29.7;;;25.2;;
36833;SDS011;48003;52.084;5.224;2022-07-21T06:03:47;28.6;;;25.5;;
36833;SDS011;48003;52.084;5.224;2022-07-21T06:07:22;29.3;;;24.7;;
36833;SDS011;48003;52.084;5.224;2022-07-21T06:09:09;30.2;;;24.1;;
36833;SDS011;48003;52.084;5.224;2022-07-21T06:10:55;31.8;;;24.5;;
36833;SDS011;48003;52.084;5.224;2022-07-21T06:12:43;30.6;;;25.2;;
36833;SDS011;48003;52.084;5.224;2022-07-21T06:14:31;32.8;;;23.7;;
36833;SDS011;48003;52.084;5.224;2022-07-21T06:16:17;32.71;;;22.9;;
36833;SDS011;48003;52.084;5.224;2022-07-21T06:19:50;32.71;;;22.9;;
36833;SDS011;48003;52.084;5.224;2022-07-21T06:21:37;30.0;;;23.7;;
36833;SDS011;48003;52.084;5.224;2022-07-21T06:23:24;31.7;;;24.3;;
36833;SDS011;48003;52.084;5.224;2022-07-21T06:25:11;32.21;;;24.5;;
36833;SDS011;48003;52.084;5.224;2022-07-21T06:26:58;33.71;;;24.7;;
36833;SDS011;48003;52.084;5.224;2022-07-21T06:28:45;35.1;;;25.1;;
36833;SDS011;48003;52.084;5.224;2022-07-21T06:32:17;30.3;;;24.9;;
36833;SDS011;48003;52.084;5.224;2022-07-21T06:34:04;36.0;;;25.6;;
36833;SDS011;48003;52.084;5.224;2022-07-21T06:35:51;35.0;;;26.3;;
36833;SDS011;48003;52.084;5.224;2022-07-21T06:37:38;39.4;;;27.4;;
36833;SDS011;48003;52.084;5.224;2022-07-21T06:39:30;38.0;;;26.6;;
36833;SDS011;48003;52.084;5.224;2022-07-21T06:41:16;36.31;;;26.3;;
36833;SDS011;48003;52.084;5.224;2022-07-21T06:44:48;37.71;;;27.8;;
36833;SDS011;48003;52.084;5.224;2022-07-21T06:46:35;35.9;;;27.8;;
36833;SDS011;48003;52.084;5.224;2022-07-21T06:48:22;40.9;;;28.5;;
36833;SDS011;48003;52.084;5.224;2022-07-21T06:50:09;42.9;;;30.5;;
36833;SDS011;48003;52.084;5.224;2022-07-21T06:51:56;41.6;;;31.1;;
36833;SDS011;48003;52.084;5.224;2022-07-21T06:55:29;43.9;;;30.8;;
36833;SDS011;48003;52.084;5.224;2022-07-21T06:57:16;43.8;;;31.8;;
36833;SDS011;48003;52.084;5.224;2022-07-21T06:59:02;45.5;;;32.8;;
36833;SDS011;48003;52.084;5.224;2022-07-21T07:00:50;59.4;;;38.31;;
36833;SDS011;48003;52.084;5.224;2022-07-21T07:02:36;51.2;;;36.31;;
36833;SDS011;48003;52.084;5.224;2022-07-21T07:04:23;49.0;;;35.6;;
36833;SDS011;48003;52.084;5.224;2022-07-21T07:07:57;50.2;;;35.31;;
36833;SDS011;48003;52.084;5.224;2022-07-21T07:11:30;55.0;;;36.31;;
36833;SDS011;48003;52.084;5.224;2022-07-21T07:13:17;49.6;;;35.0;;
36833;SDS011;48003;52.084;5.224;2022-07-21T07:15:04;54.3;;;36.0;;
36833;SDS011;48003;52.084;5.224;2022-07-21T07:16:52;54.3;;;36.1;;
36833;SDS011;48003;52.084;5.224;2022-07-21T07:20:25;46.6;;;33.5;;
36833;SDS011;48003;52.084;5.224;2022-07-21T07:22:13;46.6;;;33.5;;
36833;SDS011;48003;52.084;5.224;2022-07-21T07:23:59;54.0;;;36.81;;
36833;SDS011;48003;52.084;5.224;2022-07-21T07:25:46;54.0;;;36.1;;
36833;SDS011;48003;52.084;5.224;2022-07-21T07:27:33;57.8;;;37.31;;
36833;SDS011;48003;52.084;5.224;2022-07-21T07:29:20;52.3;;;37.1;;
36833;SDS011;48003;52.084;5.224;2022-07-21T07:32:53;54.5;;;36.0;;
36833;SDS011;48003;52.084;5.224;2022-07-21T07:34:39;50.4;;;35.1;;
36833;SDS011;48003;52.084;5.224;2022-07-21T07:36:26;49.9;;;34.31;;
36833;SDS011;48003;52.084;5.224;2022-07-21T07:38:14;49.7;;;36.21;;
36833;SDS011;48003;52.084;5.224;2022-07-21T07:40:02;52.9;;;37.6;;
36833;SDS011;48003;52.084;5.224;2022-07-21T07:43:39;54.7;;;37.1;;
36833;SDS011;48003;52.084;5.224;2022-07-21T07:45:26;54.7;;;37.1;;
36833;SDS011;48003;52.084;5.224;2022-07-21T07:47:12;53.1;;;36.81;;
36833;SDS011;48003;52.084;5.224;2022-07-21T07:48:59;52.2;;;36.1;;
36833;SDS011;48003;52.084;5.224;2022-07-21T07:50:46;51.7;;;35.81;;
36833;SDS011;48003;52.084;5.224;2022-07-21T07:52:32;50.9;;;36.0;;
36833;SDS011;48003;52.084;5.224;2022-07-21T07:56:05;52.1;;;35.9;;
36833;SDS011;48003;52.084;5.224;2022-07-21T07:57:53;51.9;;;35.9;;
36833;SDS011;48003;52.084;5.224;2022-07-21T07:59:41;56.0;;;37.21;;
36833;SDS011;48003;52.084;5.224;2022-07-21T08:01:29;54.1;;;36.9;;
36833;SDS011;48003;52.084;5.224;2022-07-21T08:03:15;51.9;;;36.6;;
36833;SDS011;48003;52.084;5.224;2022-07-21T08:05:03;53.3;;;36.81;;
36833;SDS011;48003;52.084;5.224;2022-07-21T08:08:36;53.8;;;38.1;;
36833;SDS011;48003;52.084;5.224;2022-07-21T08:10:22;57.1;;;38.6;;
36833;SDS011;48003;52.084;5.224;2022-07-21T08:12:08;56.8;;;37.6;;
36833;SDS011;48003;52.084;5.224;2022-07-21T08:13:55;58.0;;;38.9;;
36833;SDS011;48003;52.084;5.224;2022-07-21T08:15:42;50.5;;;37.1;;
36833;SDS011;48003;52.084;5.224;2022-07-21T08:17:29;55.3;;;37.81;;
36833;SDS011;48003;52.084;5.224;2022-07-21T08:21:02;49.8;;;36.21;;
36833;SDS011;48003;52.084;5.224;2022-07-21T08:22:49;49.2;;;34.71;;
36833;SDS011;48003;52.084;5.224;2022-07-21T08:24:37;49.0;;;36.81;;
36833;SDS011;48003;52.084;5.224;2022-07-21T08:26:24;46.8;;;34.4;;
36833;SDS011;48003;52.084;5.224;2022-07-21T08:28:11;55.8;;;34.81;;
36833;SDS011;48003;52.084;5.224;2022-07-21T08:31:46;47.3;;;35.0;;
36833;SDS011;48003;52.084;5.224;2022-07-21T08:33:31;48.0;;;35.81;;
36833;SDS011;48003;52.084;5.224;2022-07-21T08:35:17;41.8;;;32.71;;
36833;SDS011;48003;52.084;5.224;2022-07-21T08:37:05;41.9;;;32.0;;
36833;SDS011;48003;52.084;5.224;2022-07-21T08:38:51;42.6;;;30.8;;
36833;SDS011;48003;52.084;5.224;2022-07-21T08:40:39;41.3;;;31.9;;
36833;SDS011;48003;52.084;5.224;2022-07-21T08:44:15;42.7;;;32.21;;
36833;SDS011;48003;52.084;5.224;2022-07-21T08:46:01;35.6;;;26.9;;
36833;SDS011;48003;52.084;5.224;2022-07-21T08:47:49;34.31;;;24.7;;
36833;SDS011;48003;52.084;5.224;2022-07-21T08:49:39;28.4;;;22.1;;
36833;SDS011;48003;52.084;5.224;2022-07-21T08:51:26;26.7;;;20.8;;
36833;SDS011;48003;52.084;5.224;2022-07-21T08:53:12;26.6;;;21.7;;
36833;SDS011;48003;52.084;5.224;2022-07-21T08:56:49;25.8;;;20.5;;
36833;SDS011;48003;52.084;5.224;2022-07-21T08:58:37;25.7;;;19.91;;
36833;SDS011;48003;52.084;5.224;2022-07-21T09:00:24;25.0;;;19.61;;
36833;SDS011;48003;52.084;5.224;2022-07-21T09:02:24;27.6;;;20.9;;
36833;SDS011;48003;52.084;5.224;2022-07-21T09:04:19;22.5;;;18.3;;
36833;SDS011;48003;52.084;5.224;2022-07-21T09:06:10;22.3;;;18.11;;
36833;SDS011;48003;52.084;5.224;2022-07-21T09:07:58;22.0;;;18.61;;
36833;SDS011;48003;52.084;5.224;2022-07-21T09:09:53;24.3;;;18.5;;
36833;SDS011;48003;52.084;5.224;2022-07-21T09:13:31;14.4;;;12.4;;
36833;SDS011;48003;52.084;5.224;2022-07-21T09:15:19;12.9;;;10.4;;
36833;SDS011;48003;52.084;5.224;2022-07-21T09:17:08;10.6;;;8.2;;
36833;SDS011;48003;52.084;5.224;2022-07-21T09:18:56;9.21;;;7.7;;
36833;SDS011;48003;52.084;5.224;2022-07-21T09:20:46;11.1;;;7.5;;
36833;SDS011;48003;52.084;5.224;2022-07-21T09:22:35;10.4;;;8.2;;
36833;SDS011;48003;52.084;5.224;2022-07-21T09:26:10;9.5;;;7.3;;
36833;SDS011;48003;52.084;5.224;2022-07-21T09:28:05;9.21;;;7.9;;
36833;SDS011;48003;52.084;5.224;2022-07-21T09:29:56;10.21;;;8.6;;
36833;SDS011;48003;52.084;5.224;2022-07-21T09:31:44;9.71;;;7.7;;
36833;SDS011;48003;52.084;5.224;2022-07-21T09:33:32;10.6;;;8.6;;
36833;SDS011;48003;52.084;5.224;2022-07-21T09:35:21;10.4;;;8.5;;
36833;SDS011;48003;52.084;5.224;2022-07-21T09:37:07;9.31;;;8.1;;
36833;SDS011;48003;52.084;5.224;2022-07-21T09:40:45;10.5;;;8.1;;
36833;SDS011;48003;52.084;5.224;2022-07-21T09:42:34;8.81;;;7.9;;
36833;SDS011;48003;52.084;5.224;2022-07-21T09:44:29;11.0;;;7.8;;
36833;SDS011;48003;52.084;5.224;2022-07-21T09:46:16;9.0;;;7.2;;
36833;SDS011;48003;52.084;5.224;2022-07-21T09:48:05;8.0;;;7.2;;
36833;SDS011;48003;52.084;5.224;2022-07-21T09:49:52;9.81;;;7.6;;
36833;SDS011;48003;52.084;5.224;2022-07-21T09:51:41;8.71;;;6.9;;
36833;SDS011;48003;52.084;5.224;2022-07-21T09:55:35;8.31;;;7.4;;
36833;SDS011;48003;52.084;5.224;2022-07-21T09:57:22;7.8;;;6.9;;
36833;SDS011;48003;52.084;5.224;2022-07-21T09:59:10;7.8;;;7.0;;
36833;SDS011;48003;52.084;5.224;2022-07-21T10:00:58;9.5;;;7.3;;
36833;SDS011;48003;52.084;5.224;2022-07-21T10:02:44;7.6;;;6.6;;
36833;SDS011;48003;52.084;5.224;2022-07-21T10:04:31;6.9;;;5.8;;
36833;SDS011;48003;52.084;5.224;2022-07-21T10:09:59;7.3;;;6.0;;
36833;SDS011;48003;52.084;5.224;2022-07-21T10:11:45;7.1;;;6.2;;
36833;SDS011;48003;52.084;5.224;2022-07-21T10:13:32;6.9;;;6.2;;
36833;SDS011;48003;52.084;5.224;2022-07-21T10:15:19;7.7;;;6.7;;
36833;SDS011;48003;52.084;5.224;2022-07-21T10:17:07;7.3;;;6.2;;
36833;SDS011;48003;52.084;5.224;2022-07-21T10:18:55;9.1;;;6.8;;
36833;SDS011;48003;52.084;5.224;2022-07-21T10:22:47;7.4;;;6.6;;
36833;SDS011;48003;52.084;5.224;2022-07-21T10:26:59;10.1;;;6.3;;
36833;SDS011;48003;52.084;5.224;2022-07-21T10:28:49;10.0;;;8.1;;
36833;SDS011;48003;52.084;5.224;2022-07-21T10:30:36;9.81;;;8.5;;
36833;SDS011;48003;52.084;5.224;2022-07-21T10:32:27;8.31;;;7.5;;
36833;SDS011;48003;52.084;5.224;2022-07-21T10:34:16;10.3;;;8.0;;
36833;SDS011;48003;52.084;5.224;2022-07-21T10:36:52;11.2;;;9.4;;
36833;SDS011;48003;52.084;5.224;2022-07-21T10:38:39;10.21;;;8.0;;
36833;SDS011;48003;52.084;5.224;2022-07-21T10:40:40;10.9;;;9.21;;
36833;SDS011;48003;52.084;5.224;2022-07-21T10:42:26;9.9;;;8.1;;
36833;SDS011;48003;52.084;5.224;2022-07-21T10:44:37;11.3;;;9.81;;
36833;SDS011;48003;52.084;5.224;2022-07-21T10:46:33;12.9;;;9.71;;
36833;SDS011;48003;52.084;5.224;2022-07-21T10:48:53;13.1;;;10.0;;
36833;SDS011;48003;52.084;5.224;2022-07-21T10:50:40;15.5;;;10.7;;
36833;SDS011;48003;52.084;5.224;2022-07-21T10:53:01;11.8;;;10.21;;
36833;SDS011;48003;52.084;5.224;2022-07-21T10:55:12;13.0;;;9.9;;
36833;SDS011;48003;52.084;5.224;2022-07-21T10:57:32;12.0;;;9.1;;
36833;SDS011;48003;52.084;5.224;2022-07-21T10:59:18;13.3;;;9.31;;
36833;SDS011;48003;52.084;5.224;2022-07-21T11:01:05;13.5;;;10.1;;
36833;SDS011;48003;52.084;5.224;2022-07-21T11:03:12;10.21;;;8.6;;
36833;SDS011;48003;52.084;5.224;2022-07-21T11:05:04;14.9;;;10.3;;
36833;SDS011;48003;52.084;5.224;2022-07-21T11:08:39;14.2;;;10.1;;
36833;SDS011;48003;52.084;5.224;2022-07-21T11:10:27;16.0;;;11.4;;
36833;SDS011;48003;52.084;5.224;2022-07-21T11:12:17;14.1;;;11.1;;
36833;SDS011;48003;52.084;5.224;2022-07-21T11:14:04;14.7;;;11.4;;
36833;SDS011;48003;52.084;5.224;2022-07-21T11:15:55;15.4;;;10.8;;
36833;SDS011;48003;52.084;5.224;2022-07-21T11:17:44;12.8;;;10.1;;
36833;SDS011;48003;52.084;5.224;2022-07-21T11:19:31;12.2;;;9.21;;
36833;SDS011;48003;52.084;5.224;2022-07-21T11:23:08;11.5;;;9.0;;
36833;SDS011;48003;52.084;5.224;2022-07-21T11:24:55;12.7;;;9.21;;
36833;SDS011;48003;52.084;5.224;2022-07-21T11:26:43;10.7;;;8.71;;
36833;SDS011;48003;52.084;5.224;2022-07-21T11:28:30;10.9;;;8.5;;
36833;SDS011;48003;52.084;5.224;2022-07-21T11:30:17;11.1;;;7.9;;
36833;SDS011;48003;52.084;5.224;2022-07-21T11:32:04;11.9;;;8.9;;
36833;SDS011;48003;52.084;5.224;2022-07-21T11:35:39;9.71;;;8.0;;
36833;SDS011;48003;52.084;5.224;2022-07-21T11:37:27;10.4;;;8.31;;
36833;SDS011;48003;52.084;5.224;2022-07-21T11:39:16;9.5;;;7.3;;
36833;SDS011;48003;52.084;5.224;2022-07-21T11:41:13;7.1;;;6.4;;
36833;SDS011;48003;52.084;5.224;2022-07-21T11:43:06;9.71;;;7.5;;
36833;SDS011;48003;52.084;5.224;2022-07-21T11:44:52;10.8;;;7.7;;
36833;SDS011;48003;52.084;5.224;2022-07-21T11:46:47;10.21;;;7.5;;
36833;SDS011;48003;52.084;5.224;2022-07-21T11:50:21;9.21;;;7.2;;
36833;SDS011;48003;52.084;5.224;2022-07-21T11:52:08;7.7;;;6.9;;
36833;SDS011;48003;52.084;5.224;2022-07-21T11:53:57;9.0;;;7.4;;
36833;SDS011;48003;52.084;5.224;2022-07-21T11:55:44;6.9;;;5.6;;
36833;SDS011;48003;52.084;5.224;2022-07-21T11:57:30;8.0;;;5.5;;
36833;SDS011;48003;52.084;5.224;2022-07-21T11:59:18;7.1;;;6.0;;
36833;SDS011;48003;52.084;5.224;2022-07-21T12:03:04;8.0;;;5.8;;
36833;SDS011;48003;52.084;5.224;2022-07-21T12:04:51;7.6;;;6.4;;
36833;SDS011;48003;52.084;5.224;2022-07-21T12:06:41;8.31;;;6.2;;
36833;SDS011;48003;52.084;5.224;2022-07-21T12:08:28;7.8;;;6.0;;
36833;SDS011;48003;52.084;5.224;2022-07-21T12:10:21;7.6;;;6.0;;
36833;SDS011;48003;52.084;5.224;2022-07-21T12:12:10;7.6;;;6.2;;
36833;SDS011;48003;52.084;5.224;2022-07-21T12:13:58;7.3;;;6.5;;
36833;SDS011;48003;52.084;5.224;2022-07-21T12:17:34;9.21;;;6.7;;
36833;SDS011;48003;52.084;5.224;2022-07-21T12:19:23;9.0;;;6.4;;
36833;SDS011;48003;52.084;5.224;2022-07-21T12:21:11;8.0;;;6.0;;
36833;SDS011;48003;52.084;5.224;2022-07-21T12:22:58;7.8;;;5.7;;
36833;SDS011;48003;52.084;5.224;2022-07-21T12:24:47;6.6;;;5.6;;
36833;SDS011;48003;52.084;5.224;2022-07-21T12:26:37;7.0;;;6.0;;
36833;SDS011;48003;52.084;5.224;2022-07-21T12:30:43;4.91;;;4.41;;
36833;SDS011;48003;52.084;5.224;2022-07-21T12:34:31;5.9;;;4.5;;
36833;SDS011;48003;52.084;5.224;2022-07-21T12:36:17;6.8;;;4.1;;
36833;SDS011;48003;52.084;5.224;2022-07-21T12:38:08;4.61;;;4.0;;
36833;SDS011;48003;52.084;5.224;2022-07-21T12:40:00;5.5;;;3.7;;
36833;SDS011;48003;52.084;5.224;2022-07-21T12:41:49;4.61;;;3.6;;
36833;SDS011;48003;52.084;5.224;2022-07-21T12:43:36;6.8;;;4.41;;
36833;SDS011;48003;52.084;5.224;2022-07-21T12:45:24;6.4;;;4.1;;
36833;SDS011;48003;52.084;5.224;2022-07-21T12:49:03;7.9;;;4.3;;
36833;SDS011;48003;52.084;5.224;2022-07-21T12:51:07;6.0;;;3.9;;
36833;SDS011;48003;52.084;5.224;2022-07-21T12:53:09;5.9;;;3.3;;
36833;SDS011;48003;52.084;5.224;2022-07-21T12:54:57;3.4;;;2.6;;
36833;SDS011;48003;52.084;5.224;2022-07-21T12:56:45;5.2;;;2.9;;